sensor_id;sensor_type;location;lat;lon;timestamp;pressure;altitude;pressure_sealevel;temperature;humidity
71889;BME280;59762;49.998;14.858;2023-08-06T00:00:19;96507.13;;;13.82;100.00
71889;BME280;59762;49.998;14.858;2023-08-06T00:03:05;96512.53;;;13.89;100.00
71889;BME280;59762;49.998;14.858;2023-08-06T00:05:31;96510.28;;;13.86;100.00
71889;BME280;59762;49.998;14.858;2023-08-06T00:07:57;96506.13;;;13.83;100.00
71889;BME280;59762;49.998;14.858;2023-08-06T00:10:22;96507.59;;;13.86;100.00
71889;BME280;59762;49.998;14.858;2023-08-06T00:12:48;96501.81;;;13.89;100.00
71889;BME280;59762;49.998;14.858;2023-08-06T00:15:14;96506.94;;;13.84;100.00
71889;BME280;59762;49.998;14.858;2023-08-06T00:17:40;96501.56;;;13.84;100.00
71889;BME280;59762;49.998;14.858;2023-08-06T00:20:06;96501.19;;;13.87;100.00
71889;BME280;59762;49.998;14.858;2023-08-06T00:22:33;96491.69;;;13.84;100.00
71889;BME280;59762;49.998;14.858;2023-08-06T00:24:59;96489.59;;;13.80;100.00
71889;BME280;59762;49.998;14.858;2023-08-06T00:27:25;96484.66;;;13.77;100.00
71889;BME280;59762;49.998;14.858;2023-08-06T00:29:51;96482.56;;;13.79;100.00
71889;BME280;59762;49.998;14.858;2023-08-06T00:32:17;96478.81;;;13.67;100.00
71889;BME280;59762;49.998;14.858;2023-08-06T00:34:43;96476.78;;;13.75;100.00
71889;BME280;59762;49.998;14.858;2023-08-06T00:37:09;96471.41;;;13.69;100.00
71889;BME280;59762;49.998;14.858;2023-08-06T00:39:34;96469.53;;;13.69;100.00
71889;BME280;59762;49.998;14.858;2023-08-06T00:42:00;96462.50;;;13.68;100.00
71889;BME280;59762;49.998;14.858;2023-08-06T00:44:25;96461.47;;;13.69;100.00
71889;BME280;59762;49.998;14.858;2023-08-06T00:46:51;96461.94;;;13.73;100.00
71889;BME280;59762;49.998;14.858;2023-08-06T00:49:17;96465.84;;;13.70;100.00
71889;BME280;59762;49.998;14.858;2023-08-06T00:51:43;96465.03;;;13.76;100.00
71889;BME280;59762;49.998;14.858;2023-08-06T00:54:09;96466.44;;;13.72;100.00
71889;BME280;59762;49.998;14.858;2023-08-06T00:56:36;96455.72;;;13.72;100.00
71889;BME280;59762;49.998;14.858;2023-08-06T00:59:06;96462.72;;;13.73;100.00
71889;BME280;59762;49.998;14.858;2023-08-06T01:01:32;96461.72;;;13.74;100.00
71889;BME280;59762;49.998;14.858;2023-08-06T01:03:57;96464.84;;;13.78;100.00
71889;BME280;59762;49.998;14.858;2023-08-06T01:06:38;96454.50;;;13.75;100.00
71889;BME280;59762;49.998;14.858;2023-08-06T01:09:15;96446.22;;;13.70;100.00
71889;BME280;59762;49.998;14.858;2023-08-06T01:17:04;96439.22;;;13.69;100.00
71889;BME280;59762;49.998;14.858;2023-08-06T01:19:30;96439.59;;;13.66;100.00
71889;BME280;59762;49.998;14.858;2023-08-06T01:21:55;96437.94;;;13.65;100.00
71889;BME280;59762;49.998;14.858;2023-08-06T01:24:21;96428.47;;;13.69;100.00
71889;BME280;59762;49.998;14.858;2023-08-06T01:29:26;96432.59;;;13.65;100.00
71889;BME280;59762;49.998;14.858;2023-08-06T01:31:56;96433.81;;;13.62;100.00
71889;BME280;59762;49.998;14.858;2023-08-06T01:34:28;96425.78;;;13.62;100.00
71889;BME280;59762;49.998;14.858;2023-08-06T01:36:56;96428.69;;;13.67;100.00
71889;BME280;59762;49.998;14.858;2023-08-06T01:39:23;96428.88;;;13.66;100.00
71889;BME280;59762;49.998;14.858;2023-08-06T01:41:49;96425.78;;;13.62;100.00
71889;BME280;59762;49.998;14.858;2023-08-06T01:44:15;96434.00;;;13.61;100.00
71889;BME280;59762;49.998;14.858;2023-08-06T01:46:41;96434.22;;;13.59;100.00
71889;BME280;59762;49.998;14.858;2023-08-06T01:49:07;96432.56;;;13.58;100.00
71889;BME280;59762;49.998;14.858;2023-08-06T01:51:33;96425.94;;;13.54;100.00
71889;BME280;59762;49.998;14.858;2023-08-06T01:53:58;96415.81;;;13.56;100.00
71889;BME280;59762;49.998;14.858;2023-08-06T01:56:24;96415.81;;;13.56;100.00
71889;BME280;59762;49.998;14.858;2023-08-06T01:58:50;96411.09;;;13.58;100.00
71889;BME280;59762;49.998;14.858;2023-08-06T02:01:15;96405.28;;;13.48;100.00
71889;BME280;59762;49.998;14.858;2023-08-06T02:03:41;96405.91;;;13.50;100.00
71889;BME280;59762;49.998;14.858;2023-08-06T02:06:07;96405.06;;;13.50;100.00
71889;BME280;59762;49.998;14.858;2023-08-06T02:08:32;96404.88;;;13.51;100.00
71889;BME280;59762;49.998;14.858;2023-08-06T02:10:58;96414.16;;;13.49;100.00
71889;BME280;59762;49.998;14.858;2023-08-06T02:13:24;96403.63;;;13.47;100.00
71889;BME280;59762;49.998;14.858;2023-08-06T02:15:50;96397.44;;;13.47;100.00
71889;BME280;59762;49.998;14.858;2023-08-06T02:18:16;96392.69;;;13.49;100.00
71889;BME280;59762;49.998;14.858;2023-08-06T02:20:42;96385.47;;;13.43;100.00
71889;BME280;59762;49.998;14.858;2023-08-06T02:23:08;96389.59;;;13.45;100.00
71889;BME280;59762;49.998;14.858;2023-08-06T02:25:35;96389.59;;;13.45;100.00
71889;BME280;59762;49.998;14.858;2023-08-06T02:28:00;96392.28;;;13.45;100.00
71889;BME280;59762;49.998;14.858;2023-08-06T02:30:26;96401.94;;;13.40;100.00
71889;BME280;59762;49.998;14.858;2023-08-06T02:32:52;96406.91;;;13.43;100.00
71889;BME280;59762;49.998;14.858;2023-08-06T02:35:18;96406.69;;;13.38;100.00
71889;BME280;59762;49.998;14.858;2023-08-06T02:37:43;96404.81;;;13.38;100.00
71889;BME280;59762;49.998;14.858;2023-08-06T02:40:09;96401.75;;;13.41;100.00
71889;BME280;59762;49.998;14.858;2023-08-06T02:42:35;96400.50;;;13.37;100.00
71889;BME280;59762;49.998;14.858;2023-08-06T02:45:01;96389.97;;;13.36;100.00
71889;BME280;59762;49.998;14.858;2023-08-06T02:47:26;96385.84;;;13.40;100.00
71889;BME280;59762;49.998;14.858;2023-08-06T02:49:53;96379.25;;;13.36;100.00
71889;BME280;59762;49.998;14.858;2023-08-06T02:52:18;96374.72;;;13.36;100.00
71889;BME280;59762;49.998;14.858;2023-08-06T02:54:44;96363.53;;;13.33;100.00
71889;BME280;59762;49.998;14.858;2023-08-06T02:57:09;96374.69;;;13.30;100.00
71889;BME280;59762;49.998;14.858;2023-08-06T02:59:35;96382.31;;;13.33;100.00
71889;BME280;59762;49.998;14.858;2023-08-06T03:02:01;96379.22;;;13.29;100.00
71889;BME280;59762;49.998;14.858;2023-08-06T03:04:27;96380.28;;;13.35;100.00
71889;BME280;59762;49.998;14.858;2023-08-06T03:06:52;96373.47;;;13.32;100.00
71889;BME280;59762;49.998;14.858;2023-08-06T03:09:18;96366.22;;;13.33;100.00
71889;BME280;59762;49.998;14.858;2023-08-06T03:11:44;96369.94;;;13.32;100.00
71889;BME280;59762;49.998;14.858;2023-08-06T03:14:10;96354.31;;;13.35;100.00
71889;BME280;59762;49.998;14.858;2023-08-06T03:16:35;96359.41;;;13.30;100.00
71889;BME280;59762;49.998;14.858;2023-08-06T03:19:01;96350.56;;;13.30;100.00
71889;BME280;59762;49.998;14.858;2023-08-06T03:21:27;96351.38;;;13.30;100.00
71889;BME280;59762;49.998;14.858;2023-08-06T03:23:53;96348.69;;;13.30;100.00
71889;BME280;59762;49.998;14.858;2023-08-06T03:26:18;96347.88;;;13.30;100.00
71889;BME280;59762;49.998;14.858;2023-08-06T03:28:44;96342.91;;;13.27;100.00
71889;BME280;59762;49.998;14.858;2023-08-06T03:31:10;96354.28;;;13.29;100.00
71889;BME280;59762;49.998;14.858;2023-08-06T03:33:36;96345.78;;;13.25;100.00
71889;BME280;59762;49.998;14.858;2023-08-06T03:36:02;96344.97;;;13.25;100.00
71889;BME280;59762;49.998;14.858;2023-08-06T03:38:28;96345.97;;;13.24;100.00
71889;BME280;59762;49.998;14.858;2023-08-06T03:40:53;96341.66;;;13.23;100.00
71889;BME280;59762;49.998;14.858;2023-08-06T03:43:19;96338.97;;;13.23;100.00
71889;BME280;59762;49.998;14.858;2023-08-06T03:45:45;96339.19;;;13.28;100.00
71889;BME280;59762;49.998;14.858;2023-08-06T03:48:11;96333.41;;;13.24;100.00
71889;BME280;59762;49.998;14.858;2023-08-06T03:50:36;96329.09;;;13.23;100.00
71889;BME280;59762;49.998;14.858;2023-08-06T03:53:03;96317.34;;;13.24;100.00
71889;BME280;59762;49.998;14.858;2023-08-06T03:55:29;96315.50;;;13.25;100.00
71889;BME280;59762;49.998;14.858;2023-08-06T03:57:55;96310.53;;;13.22;100.00
71889;BME280;59762;49.998;14.858;2023-08-06T04:00:20;96311.56;;;13.21;100.00
71889;BME280;59762;49.998;14.858;2023-08-06T04:02:46;96298.78;;;13.23;100.00
71889;BME280;59762;49.998;14.858;2023-08-06T04:05:12;96301.25;;;13.24;100.00
71889;BME280;59762;49.998;14.858;2023-08-06T04:07:38;96306.22;;;13.27;100.00
71889;BME280;59762;49.998;14.858;2023-08-06T04:10:04;96302.50;;;13.28;100.00
71889;BME280;59762;49.998;14.858;2023-08-06T04:12:30;96293.22;;;13.31;100.00
71889;BME280;59762;49.998;14.858;2023-08-06T04:15:00;96285.38;;;13.23;100.00
71889;BME280;59762;49.998;14.858;2023-08-06T04:17:26;96287.03;;;13.30;100.00
71889;BME280;59762;49.998;14.858;2023-08-06T04:19:54;96286.84;;;13.32;100.00
71889;BME280;59762;49.998;14.858;2023-08-06T04:22:20;96288.91;;;13.36;100.00
71889;BME280;59762;49.998;14.858;2023-08-06T04:24:47;96299.19;;;13.33;100.00
71889;BME280;59762;49.998;14.858;2023-08-06T04:27:14;96302.91;;;13.32;100.00
71889;BME280;59762;49.998;14.858;2023-08-06T04:29:40;96301.50;;;13.36;100.00
71889;BME280;59762;49.998;14.858;2023-08-06T04:32:08;96301.50;;;13.36;100.00
71889;BME280;59762;49.998;14.858;2023-08-06T04:34:35;96299.84;;;13.35;100.00
71889;BME280;59762;49.998;14.858;2023-08-06T04:37:02;96296.53;;;13.39;100.00
71889;BME280;59762;49.998;14.858;2023-08-06T04:39:28;96283.56;;;13.36;100.00
71889;BME280;59762;49.998;14.858;2023-08-06T04:41:55;96282.72;;;13.42;100.00
71889;BME280;59762;49.998;14.858;2023-08-06T04:44:21;96281.09;;;13.41;100.00
71889;BME280;59762;49.998;14.858;2023-08-06T04:46:47;96280.91;;;13.43;100.00
71889;BME280;59762;49.998;14.858;2023-08-06T04:49:13;96279.25;;;13.42;100.00
71889;BME280;59762;49.998;14.858;2023-08-06T04:51:39;96280.91;;;13.43;100.00
71889;BME280;59762;49.998;14.858;2023-08-06T04:54:04;96281.50;;;13.45;100.00
71889;BME280;59762;49.998;14.858;2023-08-06T04:56:30;96284.19;;;13.45;100.00
71889;BME280;59762;49.998;14.858;2023-08-06T04:58:57;96278.63;;;13.46;100.00
71889;BME280;59762;49.998;14.858;2023-08-06T05:01:23;96276.78;;;13.47;100.00
71889;BME280;59762;49.998;14.858;2023-08-06T05:03:48;96277.38;;;13.49;100.00
71889;BME280;59762;49.998;14.858;2023-08-06T05:06:14;96274.09;;;13.47;100.00
71889;BME280;59762;49.998;14.858;2023-08-06T05:08:39;96277.19;;;13.50;100.00
71889;BME280;59762;49.998;14.858;2023-08-06T05:11:05;96282.53;;;13.44;100.00
71889;BME280;59762;49.998;14.858;2023-08-06T05:13:31;96283.59;;;13.49;100.00
71889;BME280;59762;49.998;14.858;2023-08-06T05:15:57;96276.13;;;13.45;100.00
71889;BME280;59762;49.998;14.858;2023-08-06T05:18:22;96281.69;;;13.43;100.00
71889;BME280;59762;49.998;14.858;2023-08-06T05:20:48;96279.47;;;13.47;100.00
71889;BME280;59762;49.998;14.858;2023-08-06T05:23:13;96277.78;;;13.46;100.00
71889;BME280;59762;49.998;14.858;2023-08-06T05:25:39;96279.25;;;13.48;100.00
71889;BME280;59762;49.998;14.858;2023-08-06T05:28:05;96280.91;;;13.49;100.00
71889;BME280;59762;49.998;14.858;2023-08-06T05:30:31;96285.44;;;13.55;100.00
71889;BME280;59762;49.998;14.858;2023-08-06T05:32:57;96280.09;;;13.55;100.00
71889;BME280;59762;49.998;14.858;2023-08-06T05:35:23;96280.50;;;13.59;100.00
71889;BME280;59762;49.998;14.858;2023-08-06T05:37:50;96288.75;;;13.57;100.00
71889;BME280;59762;49.998;14.858;2023-08-06T05:40:15;96279.69;;;13.65;100.00
71889;BME280;59762;49.998;14.858;2023-08-06T05:42:41;96293.91;;;13.65;100.00
71889;BME280;59762;49.998;14.858;2023-08-06T05:45:07;96287.75;;;13.71;100.00
71889;BME280;59762;49.998;14.858;2023-08-06T05:47:33;96284.44;;;13.69;100.00
71889;BME280;59762;49.998;14.858;2023-08-06T05:49:59;96288.53;;;13.65;100.00
71889;BME280;59762;49.998;14.858;2023-08-06T05:52:24;96271.44;;;13.60;100.00
71889;BME280;59762;49.998;14.858;2023-08-06T05:54:50;96287.34;;;13.68;100.00
71889;BME280;59762;49.998;14.858;2023-08-06T05:57:17;96276.38;;;13.63;100.00
71889;BME280;59762;49.998;14.858;2023-08-06T05:59:43;96280.31;;;13.67;100.00
71889;BME280;59762;49.998;14.858;2023-08-06T06:02:08;96270.00;;;13.64;100.00
71889;BME280;59762;49.998;14.858;2023-08-06T06:04:34;96275.78;;;13.74;100.00
71889;BME280;59762;49.998;14.858;2023-08-06T06:07:00;96271.00;;;13.69;100.00
71889;BME280;59762;49.998;14.858;2023-08-06T06:09:26;96279.06;;;13.69;100.00
71889;BME280;59762;49.998;14.858;2023-08-06T06:11:51;96274.34;;;13.71;100.00
71889;BME280;59762;49.998;14.858;2023-08-06T06:14:18;96274.72;;;13.68;100.00
71889;BME280;59762;49.998;14.858;2023-08-06T06:16:44;96278.25;;;13.75;100.00
71889;BME280;59762;49.998;14.858;2023-08-06T06:19:11;96267.94;;;13.79;100.00
71889;BME280;59762;49.998;14.858;2023-08-06T06:21:36;96275.59;;;13.82;100.00
71889;BME280;59762;49.998;14.858;2023-08-06T06:24:03;96274.16;;;13.86;100.00
71889;BME280;59762;49.998;14.858;2023-08-06T06:26:30;96274.34;;;13.84;100.00
71889;BME280;59762;49.998;14.858;2023-08-06T06:28:55;96274.94;;;13.99;100.00
71889;BME280;59762;49.998;14.858;2023-08-06T06:31:21;96261.34;;;13.94;100.00
71889;BME280;59762;49.998;14.858;2023-08-06T06:33:47;96261.72;;;13.98;100.00
71889;BME280;59762;49.998;14.858;2023-08-06T06:36:12;96272.47;;;13.91;100.00
71889;BME280;59762;49.998;14.858;2023-08-06T06:38:38;96265.66;;;14.02;100.00
71889;BME280;59762;49.998;14.858;2023-08-06T06:41:04;96275.38;;;13.96;100.00
71889;BME280;59762;49.998;14.858;2023-08-06T06:43:30;96272.06;;;14.01;100.00
71889;BME280;59762;49.998;14.858;2023-08-06T06:45:57;96277.03;;;13.97;100.00
71889;BME280;59762;49.998;14.858;2023-08-06T06:48:27;96277.63;;;13.99;100.00
71889;BME280;59762;49.998;14.858;2023-08-06T06:50:53;96273.09;;;14.06;100.00
71889;BME280;59762;49.998;14.858;2023-08-06T06:53:19;96272.91;;;14.14;100.00
71889;BME280;59762;49.998;14.858;2023-08-06T06:55:44;96270.00;;;14.16;100.00
71889;BME280;59762;49.998;14.858;2023-08-06T06:58:10;96272.06;;;14.14;100.00
71889;BME280;59762;49.998;14.858;2023-08-06T07:00:36;96273.50;;;14.16;100.00
71889;BME280;59762;49.998;14.858;2023-08-06T07:03:03;96263.19;;;14.20;100.00
71889;BME280;59762;49.998;14.858;2023-08-06T07:05:28;96271.03;;;14.15;100.00
71889;BME280;59762;49.998;14.858;2023-08-06T07:07:54;96265.91;;;14.26;100.00
71889;BME280;59762;49.998;14.858;2023-08-06T07:10:20;96260.53;;;14.33;100.00
71889;BME280;59762;49.998;14.858;2023-08-06T07:12:46;96257.59;;;14.41;100.00
71889;BME280;59762;49.998;14.858;2023-08-06T07:15:11;96265.63;;;14.47;100.00
71889;BME280;59762;49.998;14.858;2023-08-06T07:17:37;96266.69;;;14.40;100.00
71889;BME280;59762;49.998;14.858;2023-08-06T07:20:03;96266.06;;;14.51;100.00
71889;BME280;59762;49.998;14.858;2023-08-06T07:22:29;96266.06;;;14.51;100.00
71889;BME280;59762;49.998;14.858;2023-08-06T07:24:55;96259.63;;;14.58;100.00
71889;BME280;59762;49.998;14.858;2023-08-06T07:27:21;96262.34;;;14.52;100.00
71889;BME280;59762;49.998;14.858;2023-08-06T07:29:46;96257.41;;;14.36;100.00
71889;BME280;59762;49.998;14.858;2023-08-06T07:32:14;96257.00;;;14.39;100.00
71889;BME280;59762;49.998;14.858;2023-08-06T07:34:39;96249.09;;;14.50;100.00
71889;BME280;59762;49.998;14.858;2023-08-06T07:37:05;96249.72;;;14.59;100.00
71889;BME280;59762;49.998;14.858;2023-08-06T07:39:31;96243.13;;;14.48;100.00
71889;BME280;59762;49.998;14.858;2023-08-06T07:41:57;96251.13;;;14.68;100.00
71889;BME280;59762;49.998;14.858;2023-08-06T07:44:22;96240.09;;;14.82;100.00
71889;BME280;59762;49.998;14.858;2023-08-06T07:46:49;96244.44;;;14.90;100.00
71889;BME280;59762;49.998;14.858;2023-08-06T07:49:15;96245.38;;;15.08;100.00
71889;BME280;59762;49.998;14.858;2023-08-06T07:51:41;96246.47;;;14.94;100.00
71889;BME280;59762;49.998;14.858;2023-08-06T07:54:07;96245.31;;;14.77;100.00
71889;BME280;59762;49.998;14.858;2023-08-06T07:56:33;96236.00;;;14.73;100.00
71889;BME280;59762;49.998;14.858;2023-08-06T07:58:59;96236.78;;;14.87;100.00
71889;BME280;59762;49.998;14.858;2023-08-06T08:01:25;96233.75;;;14.77;100.00
71889;BME280;59762;49.998;14.858;2023-08-06T08:03:50;96236.72;;;15.07;100.00
71889;BME280;59762;49.998;14.858;2023-08-06T08:06:16;96233.16;;;15.13;100.00
71889;BME280;59762;49.998;14.858;2023-08-06T08:08:42;96233.38;;;15.11;100.00
71889;BME280;59762;49.998;14.858;2023-08-06T08:11:08;96224.44;;;15.17;100.00
71889;BME280;59762;49.998;14.858;2023-08-06T08:13:33;96222.75;;;14.85;100.00
71889;BME280;59762;49.998;14.858;2023-08-06T08:16:01;96229.94;;;14.98;100.00
71889;BME280;59762;49.998;14.858;2023-08-06T08:18:26;96228.91;;;14.92;100.00
71889;BME280;59762;49.998;14.858;2023-08-06T08:20:53;96227.25;;;14.98;100.00
71889;BME280;59762;49.998;14.858;2023-08-06T08:23:18;96220.25;;;14.90;100.00
71889;BME280;59762;49.998;14.858;2023-08-06T08:25:44;96219.75;;;15.06;100.00
71889;BME280;59762;49.998;14.858;2023-08-06T08:28:09;96215.25;;;14.93;100.00
71889;BME280;59762;49.998;14.858;2023-08-06T08:30:35;96218.44;;;15.15;100.00
71889;BME280;59762;49.998;14.858;2023-08-06T08:33:01;96216.13;;;14.88;100.00
71889;BME280;59762;49.998;14.858;2023-08-06T08:35:27;96220.72;;;15.18;100.00
71889;BME280;59762;49.998;14.858;2023-08-06T08:37:52;96217.94;;;14.93;100.00
71889;BME280;59762;49.998;14.858;2023-08-06T08:40:18;96229.53;;;14.94;100.00
71889;BME280;59762;49.998;14.858;2023-08-06T08:42:44;96220.16;;;15.10;100.00
71889;BME280;59762;49.998;14.858;2023-08-06T08:45:14;96221.41;;;15.07;100.00
71889;BME280;59762;49.998;14.858;2023-08-06T08:47:41;96215.91;;;14.89;100.00
71889;BME280;59762;49.998;14.858;2023-08-06T08:50:11;96211.09;;;15.04;100.00
71889;BME280;59762;49.998;14.858;2023-08-06T08:52:39;96208.75;;;15.14;100.00
71889;BME280;59762;49.998;14.858;2023-08-06T08:55:09;96199.63;;;15.15;100.00
71889;BME280;59762;49.998;14.858;2023-08-06T08:57:36;96206.22;;;15.19;100.00
71889;BME280;59762;49.998;14.858;2023-08-06T09:00:03;96192.69;;;15.32;100.00
71889;BME280;59762;49.998;14.858;2023-08-06T09:02:29;96191.47;;;15.28;100.00
71889;BME280;59762;49.998;14.858;2023-08-06T09:05:01;96186.56;;;15.56;100.00
71889;BME280;59762;49.998;14.858;2023-08-06T09:07:35;96178.97;;;15.47;100.00
71889;BME280;59762;49.998;14.858;2023-08-06T09:10:06;96178.50;;;15.56;100.00
71889;BME280;59762;49.998;14.858;2023-08-06T09:12:32;96181.34;;;15.30;100.00
71889;BME280;59762;49.998;14.858;2023-08-06T09:14:58;96185.06;;;15.36;100.00
71889;BME280;59762;49.998;14.858;2023-08-06T09:17:24;96183.94;;;15.50;100.00
71889;BME280;59762;49.998;14.858;2023-08-06T09:19:50;96171.75;;;15.47;100.00
71889;BME280;59762;49.998;14.858;2023-08-06T09:22:15;96176.34;;;15.34;100.00
71889;BME280;59762;49.998;14.858;2023-08-06T09:24:41;96176.56;;;15.01;100.00
71889;BME280;59762;49.998;14.858;2023-08-06T09:27:14;96172.16;;;15.13;100.00
71889;BME280;59762;49.998;14.858;2023-08-06T09:29:44;96174.75;;;14.95;100.00
71889;BME280;59762;49.998;14.858;2023-08-06T09:32:11;96174.63;;;15.15;100.00
71889;BME280;59762;49.998;14.858;2023-08-06T09:34:45;96172.06;;;15.26;100.00
71889;BME280;59762;49.998;14.858;2023-08-06T09:37:11;96172.03;;;15.33;100.00
71889;BME280;59762;49.998;14.858;2023-08-06T09:39:40;96173.66;;;15.34;100.00
71889;BME280;59762;49.998;14.858;2023-08-06T09:42:06;96165.09;;;15.50;100.00
71889;BME280;59762;49.998;14.858;2023-08-06T09:44:33;96161.47;;;15.62;100.00
71889;BME280;59762;49.998;14.858;2023-08-06T09:47:02;96168.94;;;15.36;100.00
71889;BME280;59762;49.998;14.858;2023-08-06T09:49:41;96161.25;;;15.33;100.00
71889;BME280;59762;49.998;14.858;2023-08-06T09:52:12;96161.63;;;15.43;100.00
71889;BME280;59762;49.998;14.858;2023-08-06T09:54:38;96160.47;;;15.26;100.00
71889;BME280;59762;49.998;14.858;2023-08-06T09:57:05;96158.50;;;15.15;100.00
71889;BME280;59762;49.998;14.858;2023-08-06T09:59:31;96163.38;;;14.93;100.00
71889;BME280;59762;49.998;14.858;2023-08-06T10:01:57;96162.66;;;15.11;100.00
71889;BME280;59762;49.998;14.858;2023-08-06T10:04:24;96149.59;;;15.14;100.00
71889;BME280;59762;49.998;14.858;2023-08-06T10:06:50;96152.03;;;15.53;100.00
71889;BME280;59762;49.998;14.858;2023-08-06T10:09:16;96155.03;;;15.39;100.00
71889;BME280;59762;49.998;14.858;2023-08-06T10:11:44;96147.09;;;15.75;100.00
71889;BME280;59762;49.998;14.858;2023-08-06T10:14:25;96146.44;;;15.97;100.00
71889;BME280;59762;49.998;14.858;2023-08-06T10:16:52;96148.00;;;16.11;100.00
71889;BME280;59762;49.998;14.858;2023-08-06T10:19:19;96151.84;;;15.97;100.00
71889;BME280;59762;49.998;14.858;2023-08-06T10:24:53;96149.50;;;16.25;100.00
71889;BME280;59762;49.998;14.858;2023-08-06T10:29:53;96147.75;;;15.46;100.00
71889;BME280;59762;49.998;14.858;2023-08-06T10:32:19;96144.53;;;15.37;100.00
71889;BME280;59762;49.998;14.858;2023-08-06T10:34:55;96143.53;;;15.56;100.00
71889;BME280;59762;49.998;14.858;2023-08-06T10:37:22;96138.19;;;15.74;100.00
71889;BME280;59762;49.998;14.858;2023-08-06T10:39:52;96137.53;;;15.79;100.00
71889;BME280;59762;49.998;14.858;2023-08-06T10:42:28;96148.75;;;15.76;100.00
71889;BME280;59762;49.998;14.858;2023-08-06T10:47:42;96142.41;;;15.88;100.00
71889;BME280;59762;49.998;14.858;2023-08-06T10:50:12;96145.06;;;15.70;100.00
71889;BME280;59762;49.998;14.858;2023-08-06T10:52:38;96137.41;;;15.67;100.00
71889;BME280;59762;49.998;14.858;2023-08-06T10:55:04;96144.66;;;15.91;100.00
71889;BME280;59762;49.998;14.858;2023-08-06T10:57:30;96140.47;;;15.95;100.00
71889;BME280;59762;49.998;14.858;2023-08-06T10:59:56;96141.25;;;16.20;100.00
71889;BME280;59762;49.998;14.858;2023-08-06T11:02:21;96155.81;;;16.13;100.00
71889;BME280;59762;49.998;14.858;2023-08-06T11:04:48;96144.75;;;16.03;100.00
71889;BME280;59762;49.998;14.858;2023-08-06T11:07:14;96146.38;;;16.04;100.00
71889;BME280;59762;49.998;14.858;2023-08-06T11:09:39;96150.81;;;15.74;100.00
71889;BME280;59762;49.998;14.858;2023-08-06T11:12:11;96138.91;;;15.88;100.00
71889;BME280;59762;49.998;14.858;2023-08-06T11:14:37;96149.94;;;15.80;100.00
71889;BME280;59762;49.998;14.858;2023-08-06T11:17:05;96141.41;;;15.83;100.00
71889;BME280;59762;49.998;14.858;2023-08-06T11:19:31;96144.41;;;16.17;100.00
71889;BME280;59762;49.998;14.858;2023-08-06T11:21:57;96145.13;;;16.06;100.00
71889;BME280;59762;49.998;14.858;2023-08-06T11:24:24;96140.13;;;15.92;100.00
71889;BME280;59762;49.998;14.858;2023-08-06T11:26:49;96147.72;;;15.95;100.00
71889;BME280;59762;49.998;14.858;2023-08-06T11:29:16;96143.72;;;15.79;100.00
71889;BME280;59762;49.998;14.858;2023-08-06T11:31:41;96142.09;;;15.78;100.00
71889;BME280;59762;49.998;14.858;2023-08-06T11:34:07;96153.19;;;15.64;100.00
71889;BME280;59762;49.998;14.858;2023-08-06T11:36:34;96147.84;;;15.82;100.00
71889;BME280;59762;49.998;14.858;2023-08-06T11:39:03;96142.06;;;16.03;100.00
71889;BME280;59762;49.998;14.858;2023-08-06T11:41:31;96138.31;;;16.22;100.00
71889;BME280;59762;49.998;14.858;2023-08-06T11:44:01;96142.69;;;16.23;100.00
71889;BME280;59762;49.998;14.858;2023-08-06T11:46:26;96143.81;;;15.91;100.00
71889;BME280;59762;49.998;14.858;2023-08-06T11:48:57;96145.78;;;15.84;100.00
71889;BME280;59762;49.998;14.858;2023-08-06T11:51:24;96146.97;;;15.88;100.00
71889;BME280;59762;49.998;14.858;2023-08-06T11:53:55;96156.25;;;15.92;100.00
71889;BME280;59762;49.998;14.858;2023-08-06T11:56:21;96160.38;;;15.70;100.00
71889;BME280;59762;49.998;14.858;2023-08-06T11:58:47;96157.03;;;15.50;100.00
71889;BME280;59762;49.998;14.858;2023-08-06T12:01:13;96159.81;;;15.86;100.00
71889;BME280;59762;49.998;14.858;2023-08-06T12:03:40;96160.31;;;15.52;100.00
71889;BME280;59762;49.998;14.858;2023-08-06T12:06:06;96161.00;;;15.72;100.00
71889;BME280;59762;49.998;14.858;2023-08-06T12:08:35;96157.13;;;15.61;100.00
71889;BME280;59762;49.998;14.858;2023-08-06T12:11:00;96166.19;;;15.42;100.00
71889;BME280;59762;49.998;14.858;2023-08-06T12:13:27;96164.00;;;15.57;100.00
71889;BME280;59762;49.998;14.858;2023-08-06T12:15:54;96157.25;;;15.48;100.00
71889;BME280;59762;49.998;14.858;2023-08-06T12:18:20;96152.03;;;15.78;100.00
71889;BME280;59762;49.998;14.858;2023-08-06T12:20:45;96153.41;;;15.62;100.00
71889;BME280;59762;49.998;14.858;2023-08-06T12:23:11;96157.97;;;15.86;100.00
71889;BME280;59762;49.998;14.858;2023-08-06T12:25:41;96160.03;;;15.84;100.00
71889;BME280;59762;49.998;14.858;2023-08-06T12:28:07;96157.25;;;16.15;100.00
71889;BME280;59762;49.998;14.858;2023-08-06T12:30:34;96156.81;;;16.18;98.82
71889;BME280;59762;49.998;14.858;2023-08-06T12:33:00;96162.25;;;16.12;98.12
71889;BME280;59762;49.998;14.858;2023-08-06T12:35:25;96165.03;;;16.23;97.96
71889;BME280;59762;49.998;14.858;2023-08-06T12:37:52;96162.88;;;16.32;97.91
71889;BME280;59762;49.998;14.858;2023-08-06T12:40:22;96160.47;;;16.06;99.63
71889;BME280;59762;49.998;14.858;2023-08-06T12:42:50;96161.25;;;16.31;100.00
71889;BME280;59762;49.998;14.858;2023-08-06T12:45:15;96166.97;;;16.59;98.62
71889;BME280;59762;49.998;14.858;2023-08-06T12:47:41;96162.22;;;16.54;99.85
71889;BME280;59762;49.998;14.858;2023-08-06T12:50:07;96164.94;;;16.72;96.65
71889;BME280;59762;49.998;14.858;2023-08-06T12:52:33;96161.44;;;16.54;97.57